Time;durP1;ratioP1;P1;durP2;ratioP2;P2;SDS_P1;SDS_P2;PMS_P1;PMS_P2;Temp;Humidity;BMP_temperature;BMP_pressure;BME280_temperature;BME280_humidity;BME280_pressure;Samples;Min_cycle;Max_cycle;Signal;HPM_P1;HPM_P2
2023/06/15 00:00:01;;;;;;;5.80;3.90;;;;;;;;;;108106;270;42110;-49
2023/06/15 00:02:35;;;;;;;5.50;3.80;;;;;;;;;;108124;274;40060;-50
2023/06/15 00:05:10;;;;;;;7.00;3.90;;;;;;;;;;108137;274;39687;-48
2023/06/15 00:07:44;;;;;;;5.40;3.70;;;;;;;;;;108004;274;175535;-46
2023/06/15 00:10:17;;;;;;;6.10;4.00;;;;;;;;;;108082;267;43153;-47
2023/06/15 00:12:50;;;;;;;5.50;4.00;;;;;;;;;;108146;271;38766;-48
2023/06/15 00:15:27;;;;;;;5.70;3.70;;;;;;;;;;108133;274;39703;-47
2023/06/15 00:18:01;;;;;;;5.60;3.80;;;;;;;;;;108140;274;43805;-47
2023/06/15 00:20:35;;;;;;;6.20;3.80;;;;;;;;;;108080;270;42132;-54
2023/06/15 00:23:09;;;;;;;6.60;3.80;;;;;;;;;;108077;269;39965;-54
2023/06/15 00:25:42;;;;;;;5.60;3.70;;;;;;;;;;108116;271;39783;-49
2023/06/15 00:28:15;;;;;;;5.00;3.70;;;;;;;;;;108157;274;43968;-50
2023/06/15 00:30:50;;;;;;;6.00;3.70;;;;;;;;;;108119;270;42189;-46
2023/06/15 00:33:24;;;;;;;5.30;3.80;;;;;;;;;;108128;274;38763;-44
2023/06/15 00:35:58;;;;;;;5.40;3.60;;;;;;;;;;108139;274;39425;-45
2023/06/15 00:38:33;;;;;;;5.70;3.60;;;;;;;;;;108097;267;42814;-46
2023/06/15 00:41:07;;;;;;;5.80;3.90;;;;;;;;;;108092;271;41890;-48
2023/06/15 00:43:42;;;;;;;4.90;3.70;;;;;;;;;;108153;271;38838;-46
2023/06/15 00:46:17;;;;;;;6.00;3.90;;;;;;;;;;108159;274;39711;-50
2023/06/15 00:48:51;;;;;;;5.20;3.50;;;;;;;;;;108129;274;42812;-45
2023/06/15 00:51:26;;;;;;;5.40;3.60;;;;;;;;;;108090;270;42401;-51
2023/06/15 00:54:01;;;;;;;5.60;3.90;;;;;;;;;;108110;274;38757;-51
2023/06/15 00:56:36;;;;;;;5.30;3.90;;;;;;;;;;107470;274;893499;-48
2023/06/15 00:59:10;;;;;;;5.90;3.90;;;;;;;;;;108157;274;43840;-45
2023/06/15 01:01:47;;;;;;;6.00;3.70;;;;;;;;;;108144;274;42632;-48
2023/06/15 01:04:24;;;;;;;5.50;3.80;;;;;;;;;;108146;274;38735;-46
2023/06/15 01:07:02;;;;;;;5.50;3.60;;;;;;;;;;108139;274;40826;-52
2023/06/15 01:09:38;;;;;;;5.20;3.60;;;;;;;;;;108144;274;42805;-48
2023/06/15 01:12:17;;;;;;;5.20;3.90;;;;;;;;;;107988;271;175581;-47
2023/06/15 01:14:52;;;;;;;4.90;3.50;;;;;;;;;;108142;267;38771;-46
2023/06/15 01:17:28;;;;;;;5.70;3.60;;;;;;;;;;108035;280;175530;-46
2023/06/15 01:20:06;;;;;;;5.00;3.40;;;;;;;;;;108147;274;42569;-47
2023/06/15 01:22:55;;;;;;;5.40;3.40;;;;;;;;;;108082;274;42197;-48
2023/06/15 01:25:43;;;;;;;6.00;3.80;;;;;;;;;;108130;271;38796;-49
2023/06/15 01:28:21;;;;;;;4.70;3.40;;;;;;;;;;108131;271;39425;-51
2023/06/15 01:30:58;;;;;;;5.00;3.40;;;;;;;;;;108087;267;43929;-48
2023/06/15 01:33:31;;;;;;;4.70;3.50;;;;;;;;;;108113;271;49638;-51
2023/06/15 01:36:05;;;;;;;5.40;3.50;;;;;;;;;;108096;274;39036;-45
2023/06/15 01:38:38;;;;;;;5.50;3.50;;;;;;;;;;108121;271;40677;-49
2023/06/15 01:41:13;;;;;;;5.30;3.50;;;;;;;;;;108118;271;43873;-44
2023/06/15 01:43:47;;;;;;;5.00;3.60;;;;;;;;;;108148;267;49904;-43
2023/06/15 01:46:21;;;;;;;5.10;3.60;;;;;;;;;;108150;270;38920;-43
2023/06/15 01:48:56;;;;;;;5.00;3.70;;;;;;;;;;108148;274;39670;-48
2023/06/15 01:51:31;;;;;;;6.00;4.10;;;;;;;;;;108108;274;44110;-46
2023/06/15 01:54:07;;;;;;;5.10;3.80;;;;;;;;;;108159;270;49322;-45
2023/06/15 01:56:41;;;;;;;5.50;3.80;;;;;;;;;;108142;276;38755;-51
2023/06/15 01:59:15;;;;;;;4.90;3.50;;;;;;;;;;108162;274;39668;-54
2023/06/15 02:01:49;;;;;;;5.00;3.60;;;;;;;;;;108107;274;42795;-45
2023/06/15 02:04:22;;;;;;;5.20;4.10;;;;;;;;;;108124;270;49335;-47
2023/06/15 02:06:57;;;;;;;5.40;3.90;;;;;;;;;;108155;267;40519;-49
2023/06/15 02:09:30;;;;;;;5.50;4.10;;;;;;;;;;108155;271;39831;-50
2023/06/15 02:12:05;;;;;;;4.90;3.80;;;;;;;;;;108114;267;43948;-45
2023/06/15 02:14:38;;;;;;;6.00;4.00;;;;;;;;;;108159;274;48519;-46
2023/06/15 02:17:11;;;;;;;5.50;4.20;;;;;;;;;;107521;274;890962;-47
2023/06/15 02:19:45;;;;;;;6.00;4.30;;;;;;;;;;108135;270;40916;-49
2023/06/15 02:22:18;;;;;;;6.00;4.00;;;;;;;;;;108019;274;42890;-43
2023/06/15 02:24:52;;;;;;;5.90;4.00;;;;;;;;;;108082;267;49399;-49
2023/06/15 02:27:25;;;;;;;5.90;4.40;;;;;;;;;;108199;274;38744;-47
2023/06/15 02:29:58;;;;;;;7.30;4.50;;;;;;;;;;108132;274;39798;-45
2023/06/15 02:32:37;;;;;;;5.10;4.00;;;;;;;;;;108097;274;43842;-46
2023/06/15 02:35:13;;;;;;;5.40;4.10;;;;;;;;;;108154;270;48198;-48
2023/06/15 02:37:47;;;;;;;5.80;4.20;;;;;;;;;;108116;274;38862;-49
2023/06/15 02:40:21;;;;;;;6.00;4.20;;;;;;;;;;108080;270;39764;-46
2023/06/15 02:42:54;;;;;;;6.10;4.70;;;;;;;;;;108096;274;42596;-45
2023/06/15 02:45:28;;;;;;;6.00;4.30;;;;;;;;;;108106;274;49477;-45
2023/06/15 02:48:02;;;;;;;6.30;4.50;;;;;;;;;;108088;274;38768;-48
2023/06/15 02:50:35;;;;;;;6.50;4.60;;;;;;;;;;108122;270;39886;-46
2023/06/15 02:53:09;;;;;;;6.80;4.90;;;;;;;;;;108028;274;42935;-44
2023/06/15 02:55:42;;;;;;;7.10;4.80;;;;;;;;;;108124;267;49410;-49
2023/06/15 02:58:16;;;;;;;6.20;4.70;;;;;;;;;;108103;274;38758;-45
2023/06/15 03:00:50;;;;;;;6.20;4.80;;;;;;;;;;108079;274;39771;-44
2023/06/15 03:03:27;;;;;;;7.20;4.90;;;;;;;;;;108124;274;42928;-47
2023/06/15 03:06:03;;;;;;;6.10;4.90;;;;;;;;;;108014;267;49285;-43
2023/06/15 03:08:36;;;;;;;6.60;4.90;;;;;;;;;;108085;267;40051;-46
2023/06/15 03:11:10;;;;;;;7.30;5.30;;;;;;;;;;108016;267;39691;-46
2023/06/15 03:13:43;;;;;;;6.50;4.70;;;;;;;;;;108047;274;42811;-48
2023/06/15 03:16:16;;;;;;;6.80;4.80;;;;;;;;;;108092;274;49295;-52
2023/06/15 03:18:50;;;;;;;6.00;4.60;;;;;;;;;;108160;270;40979;-48
2023/06/15 03:21:26;;;;;;;7.00;4.80;;;;;;;;;;108169;271;39772;-52
2023/06/15 03:23:59;;;;;;;6.90;5.00;;;;;;;;;;108106;274;42623;-43
2023/06/15 03:26:33;;;;;;;7.30;5.00;;;;;;;;;;108166;274;50478;-51
2023/06/15 03:29:07;;;;;;;6.60;5.00;;;;;;;;;;108136;270;39862;-46
2023/06/15 03:31:43;;;;;;;6.30;4.70;;;;;;;;;;108071;273;39642;-46
2023/06/15 03:34:17;;;;;;;6.70;4.60;;;;;;;;;;108028;270;43976;-47
2023/06/15 03:36:51;;;;;;;6.70;5.00;;;;;;;;;;108037;274;47341;-49
2023/06/15 03:39:25;;;;;;;6.20;4.90;;;;;;;;;;108117;274;38799;-54
2023/06/15 03:41:58;;;;;;;6.90;5.10;;;;;;;;;;108096;274;39650;-47
2023/06/15 03:44:32;;;;;;;6.90;4.90;;;;;;;;;;108065;267;42914;-48
2023/06/15 03:47:09;;;;;;;6.20;4.80;;;;;;;;;;108078;274;49547;-51
2023/06/15 03:49:42;;;;;;;6.90;4.90;;;;;;;;;;108133;274;38917;-45
2023/06/15 03:52:16;;;;;;;6.40;5.10;;;;;;;;;;108137;270;39671;-49
2023/06/15 03:54:49;;;;;;;6.20;4.80;;;;;;;;;;108076;267;42871;-46
2023/06/15 03:57:27;;;;;;;6.80;5.00;;;;;;;;;;108173;274;49632;-49
2023/06/15 04:00:00;;;;;;;6.40;4.60;;;;;;;;;;108140;270;38797;-46
2023/06/15 04:02:36;;;;;;;6.80;5.00;;;;;;;;;;108084;267;39684;-49
2023/06/15 04:05:11;;;;;;;7.00;5.20;;;;;;;;;;108104;267;43154;-49
2023/06/15 04:07:44;;;;;;;5.90;4.60;;;;;;;;;;108190;274;49565;-46
2023/06/15 04:10:17;;;;;;;6.40;4.40;;;;;;;;;;108123;274;38930;-50
2023/06/15 04:12:50;;;;;;;6.70;4.70;;;;;;;;;;108158;270;40980;-45
2023/06/15 04:15:44;;;;;;;6.70;4.80;;;;;;;;;;108095;267;43153;-50
2023/06/15 04:18:26;;;;;;;6.70;5.10;;;;;;;;;;108131;271;42204;-50
2023/06/15 04:20:59;;;;;;;6.40;4.80;;;;;;;;;;108105;274;38874;-49
2023/06/15 04:23:32;;;;;;;6.50;4.70;;;;;;;;;;108134;267;39664;-46
2023/06/15 04:26:06;;;;;;;6.70;4.90;;;;;;;;;;108033;270;42793;-47
2023/06/15 04:28:39;;;;;;;6.80;4.90;;;;;;;;;;108109;270;42250;-48
2023/06/15 04:31:17;;;;;;;6.00;4.80;;;;;;;;;;108147;274;38717;-47
2023/06/15 04:33:58;;;;;;;6.20;4.70;;;;;;;;;;108096;267;40767;-49
2023/06/15 04:36:34;;;;;;;6.10;4.90;;;;;;;;;;108086;271;42872;-44
2023/06/15 04:39:07;;;;;;;6.00;4.60;;;;;;;;;;108034;274;175560;-48
2023/06/15 04:41:41;;;;;;;6.20;4.60;;;;;;;;;;108150;274;38873;-46
2023/06/15 04:44:15;;;;;;;6.60;4.90;;;;;;;;;;108050;271;40994;-49
2023/06/15 04:46:48;;;;;;;5.90;4.70;;;;;;;;;;107930;277;42797;-46
2023/06/15 04:49:21;;;;;;;5.50;4.50;;;;;;;;;;107659;269;529995;-45
2023/06/15 04:51:55;;;;;;;6.40;4.50;;;;;;;;;;108125;267;38799;-43
2023/06/15 04:54:29;;;;;;;6.70;4.70;;;;;;;;;;108057;275;39833;-49
2023/06/15 04:57:02;;;;;;;6.30;4.40;;;;;;;;;;108069;267;42800;-46
2023/06/15 04:59:38;;;;;;;6.10;4.30;;;;;;;;;;108105;275;41876;-50
2023/06/15 05:02:11;;;;;;;5.70;4.10;;;;;;;;;;108168;271;38730;-48
2023/06/15 05:04:47;;;;;;;5.80;4.30;;;;;;;;;;108097;275;39654;-49
2023/06/15 05:07:20;;;;;;;5.90;4.40;;;;;;;;;;108018;271;43868;-49
2023/06/15 05:09:53;;;;;;;6.10;4.30;;;;;;;;;;108004;275;42118;-46
2023/06/15 05:12:27;;;;;;;5.50;4.60;;;;;;;;;;108115;275;39907;-46
2023/06/15 05:15:00;;;;;;;5.60;4.30;;;;;;;;;;108120;275;41021;-48
2023/06/15 05:17:36;;;;;;;6.70;4.20;;;;;;;;;;108079;275;42774;-47
2023/06/15 05:20:11;;;;;;;7.20;4.40;;;;;;;;;;108081;271;41899;-47
2023/06/15 05:22:44;;;;;;;5.90;4.40;;;;;;;;;;108095;271;38653;-50
2023/06/15 05:25:19;;;;;;;6.70;4.50;;;;;;;;;;108068;275;40984;-47
2023/06/15 05:27:55;;;;;;;6.40;4.40;;;;;;;;;;108034;275;42950;-44
2023/06/15 05:30:29;;;;;;;5.80;4.40;;;;;;;;;;108148;271;42307;-43
2023/06/15 05:33:02;;;;;;;5.90;4.10;;;;;;;;;;108147;274;38829;-44
2023/06/15 05:35:36;;;;;;;5.70;4.50;;;;;;;;;;108122;275;39427;-44
2023/06/15 05:38:12;;;;;;;7.10;4.20;;;;;;;;;;108091;274;42808;-44
2023/06/15 05:40:46;;;;;;;6.10;4.40;;;;;;;;;;108144;267;42326;-49
2023/06/15 05:43:20;;;;;;;6.40;4.10;;;;;;;;;;108114;267;38781;-44
2023/06/15 05:45:54;;;;;;;7.90;3.90;;;;;;;;;;107965;267;175533;-43
2023/06/15 05:48:28;;;;;;;6.00;4.00;;;;;;;;;;108064;271;43127;-42
2023/06/15 05:51:02;;;;;;;6.10;4.10;;;;;;;;;;108091;275;42136;-46
2023/06/15 05:53:35;;;;;;;5.80;3.80;;;;;;;;;;108064;273;38559;-44
2023/06/15 05:56:08;;;;;;;6.00;3.70;;;;;;;;;;108141;271;40632;-48
2023/06/15 05:58:42;;;;;;;5.60;3.70;;;;;;;;;;108103;275;43142;-51
2023/06/15 06:01:15;;;;;;;5.60;3.80;;;;;;;;;;108122;275;42112;-51
2023/06/15 06:03:48;;;;;;;6.20;3.80;;;;;;;;;;108059;271;39848;-44
2023/06/15 06:06:21;;;;;;;6.10;4.00;;;;;;;;;;108099;275;39790;-47
2023/06/15 06:08:55;;;;;;;6.00;3.90;;;;;;;;;;108061;273;42869;-42
2023/06/15 06:11:28;;;;;;;6.80;4.10;;;;;;;;;;108085;275;43157;-45
2023/06/15 06:14:02;;;;;;;5.50;3.80;;;;;;;;;;108091;271;38806;-42
2023/06/15 06:16:37;;;;;;;6.20;5.00;;;;;;;;;;108100;271;40803;-44
2023/06/15 06:19:14;;;;;;;6.10;4.00;;;;;;;;;;108052;275;42782;-48
2023/06/15 06:21:48;;;;;;;6.00;3.80;;;;;;;;;;108034;271;41844;-49
2023/06/15 06:24:24;;;;;;;6.00;3.90;;;;;;;;;;108047;275;39422;-48
2023/06/15 06:26:57;;;;;;;6.40;4.10;;;;;;;;;;108016;267;40120;-45
2023/06/15 06:29:30;;;;;;;6.10;4.10;;;;;;;;;;108060;267;42893;-43
2023/06/15 06:32:04;;;;;;;5.60;3.80;;;;;;;;;;108017;275;175506;-47
2023/06/15 06:34:42;;;;;;;8.40;4.20;;;;;;;;;;108099;275;38797;-44
2023/06/15 06:37:21;;;;;;;5.80;4.00;;;;;;;;;;108022;267;175471;-44
2023/06/15 06:39:57;;;;;;;6.70;4.20;;;;;;;;;;108081;271;43879;-43
2023/06/15 06:42:30;;;;;;;7.50;4.20;;;;;;;;;;108136;267;41862;-44
2023/06/15 06:45:03;;;;;;;7.40;4.30;;;;;;;;;;108028;276;39830;-43
2023/06/15 06:47:37;;;;;;;6.90;4.20;;;;;;;;;;108114;274;39627;-43
2023/06/15 06:50:14;;;;;;;7.20;4.50;;;;;;;;;;108105;274;44324;-43
2023/06/15 06:52:47;;;;;;;7.40;4.50;;;;;;;;;;108127;274;43322;-42
2023/06/15 06:55:24;;;;;;;7.10;3.90;;;;;;;;;;108152;270;38862;-45
2023/06/15 06:58:00;;;;;;;6.80;4.40;;;;;;;;;;108080;271;39733;-47
2023/06/15 07:00:33;;;;;;;6.20;4.30;;;;;;;;;;107949;267;175547;-46
2023/06/15 07:03:07;;;;;;;6.90;4.30;;;;;;;;;;108107;274;42286;-44
2023/06/15 07:05:45;;;;;;;7.00;4.30;;;;;;;;;;108172;267;38744;-45
2023/06/15 07:08:20;;;;;;;6.50;4.40;;;;;;;;;;108136;274;39704;-43
2023/06/15 07:10:55;;;;;;;5.90;4.50;;;;;;;;;;108071;274;43948;-42
2023/06/15 07:13:30;;;;;;;6.30;4.10;;;;;;;;;;108061;270;42112;-43
2023/06/15 07:16:06;;;;;;;6.80;4.70;;;;;;;;;;108071;267;38658;-42
2023/06/15 07:18:41;;;;;;;5.70;4.60;;;;;;;;;;108075;267;39466;-43
2023/06/15 07:21:14;;;;;;;6.10;4.70;;;;;;;;;;108011;276;43998;-44
2023/06/15 07:23:50;;;;;;;6.80;4.70;;;;;;;;;;108030;271;42112;-45
2023/06/15 07:26:28;;;;;;;5.90;4.50;;;;;;;;;;108116;270;38765;-42
2023/06/15 07:29:01;;;;;;;6.30;4.60;;;;;;;;;;108096;274;39845;-45
2023/06/15 07:31:35;;;;;;;5.80;4.20;;;;;;;;;;108067;275;49895;-49
2023/06/15 07:34:09;;;;;;;8.10;4.90;;;;;;;;;;108143;267;43276;-46
2023/06/15 07:36:44;;;;;;;5.70;4.80;;;;;;;;;;108119;267;38514;-55
2023/06/15 07:39:21;;;;;;;5.80;4.50;;;;;;;;;;108065;274;39665;-48
2023/06/15 07:41:55;;;;;;;6.10;4.80;;;;;;;;;;108039;274;49539;-48
2023/06/15 07:44:28;;;;;;;5.50;4.40;;;;;;;;;;108146;271;42236;-45
2023/06/15 07:47:01;;;;;;;5.80;4.50;;;;;;;;;;108134;270;39782;-45
2023/06/15 07:49:37;;;;;;;6.20;4.30;;;;;;;;;;108123;274;39532;-46
2023/06/15 07:52:18;;;;;;;6.60;4.50;;;;;;;;;;108070;270;50758;-43
2023/06/15 07:54:52;;;;;;;6.10;4.50;;;;;;;;;;108148;274;43218;-43
2023/06/15 07:57:26;;;;;;;7.10;4.60;;;;;;;;;;108122;274;38820;-41
2023/06/15 07:59:59;;;;;;;5.80;4.50;;;;;;;;;;108122;274;39753;-44
2023/06/15 08:02:33;;;;;;;6.50;4.40;;;;;;;;;;108049;267;49886;-41
2023/06/15 08:05:08;;;;;;;6.00;4.90;;;;;;;;;;108104;274;41932;-44
2023/06/15 08:07:45;;;;;;;5.30;4.30;;;;;;;;;;108101;270;38628;-44
2023/06/15 08:10:18;;;;;;;6.60;4.70;;;;;;;;;;108110;274;39795;-50
2023/06/15 08:12:52;;;;;;;6.10;4.30;;;;;;;;;;108247;270;48641;-49
2023/06/15 08:15:25;;;;;;;5.50;4.30;;;;;;;;;;108119;274;42086;-47
2023/06/15 08:18:00;;;;;;;6.10;4.50;;;;;;;;;;108150;270;38832;-49
2023/06/15 08:20:34;;;;;;;5.10;4.20;;;;;;;;;;108151;271;40834;-46
2023/06/15 08:23:07;;;;;;;5.90;4.10;;;;;;;;;;108073;271;49573;-48
2023/06/15 08:25:40;;;;;;;6.50;4.60;;;;;;;;;;108100;274;42322;-50
2023/06/15 08:28:15;;;;;;;5.90;4.60;;;;;;;;;;108107;274;38897;-44
2023/06/15 08:30:48;;;;;;;6.40;4.50;;;;;;;;;;108125;274;39691;-46
2023/06/15 08:33:22;;;;;;;7.00;4.50;;;;;;;;;;108069;274;49258;-45
2023/06/15 08:35:55;;;;;;;6.30;4.80;;;;;;;;;;108125;271;42151;-49
2023/06/15 08:38:29;;;;;;;5.60;4.30;;;;;;;;;;108073;271;39185;-45
2023/06/15 08:41:04;;;;;;;6.20;4.60;;;;;;;;;;108139;274;40700;-43
2023/06/15 08:43:38;;;;;;;5.90;4.60;;;;;;;;;;108104;274;48666;-44
2023/06/15 08:46:11;;;;;;;5.50;4.40;;;;;;;;;;108110;267;42121;-40
2023/06/15 08:48:48;;;;;;;5.80;4.60;;;;;;;;;;108059;271;38567;-43
2023/06/15 08:51:24;;;;;;;6.10;4.80;;;;;;;;;;108148;271;40431;-41
2023/06/15 08:54:00;;;;;;;6.40;4.60;;;;;;;;;;108165;274;50101;-43
2023/06/15 08:56:37;;;;;;;6.00;4.40;;;;;;;;;;108093;271;42137;-42
2023/06/15 08:59:13;;;;;;;6.70;4.80;;;;;;;;;;108047;271;38566;-40
2023/06/15 09:01:47;;;;;;;5.60;4.80;;;;;;;;;;108139;267;40292;-41
2023/06/15 09:04:22;;;;;;;6.60;5.00;;;;;;;;;;108095;271;44011;-41
2023/06/15 09:06:58;;;;;;;6.10;4.80;;;;;;;;;;108046;269;42186;-44
2023/06/15 09:09:36;;;;;;;6.30;4.80;;;;;;;;;;108081;275;39111;-43
2023/06/15 09:12:20;;;;;;;5.70;4.80;;;;;;;;;;108059;275;41823;-42
2023/06/15 09:14:54;;;;;;;7.20;4.60;;;;;;;;;;108065;271;42841;-41
2023/06/15 09:17:31;;;;;;;5.70;4.30;;;;;;;;;;108108;271;42310;-41
2023/06/15 09:20:08;;;;;;;6.50;4.90;;;;;;;;;;108132;275;39240;-40
2023/06/15 09:22:45;;;;;;;6.90;4.80;;;;;;;;;;108104;269;39690;-50
2023/06/15 09:25:22;;;;;;;6.50;4.60;;;;;;;;;;108107;267;42831;-42
2023/06/15 09:27:59;;;;;;;5.30;4.60;;;;;;;;;;108079;275;43573;-45
2023/06/15 09:30:38;;;;;;;6.30;4.40;;;;;;;;;;108102;275;39838;-45
2023/06/15 09:33:21;;;;;;;6.00;4.60;;;;;;;;;;107952;275;39697;-45
2023/06/15 09:36:03;;;;;;;5.80;4.20;;;;;;;;;;108136;275;43942;-42
2023/06/15 09:38:45;;;;;;;6.10;4.60;;;;;;;;;;108114;271;42090;-44
2023/06/15 09:41:19;;;;;;;5.90;4.30;;;;;;;;;;108098;271;38774;-44
2023/06/15 09:43:53;;;;;;;5.90;4.70;;;;;;;;;;108030;271;40708;-46
2023/06/15 09:46:32;;;;;;;6.40;4.70;;;;;;;;;;108132;274;42967;-44
2023/06/15 09:49:22;;;;;;;6.10;4.70;;;;;;;;;;108148;267;42176;-45
2023/06/15 09:51:59;;;;;;;6.30;5.20;;;;;;;;;;108143;270;40017;-45
2023/06/15 09:54:33;;;;;;;6.00;4.90;;;;;;;;;;107884;270;175062;-46
2023/06/15 09:57:07;;;;;;;5.70;4.20;;;;;;;;;;108075;273;42800;-42
2023/06/15 09:59:41;;;;;;;5.70;4.30;;;;;;;;;;108081;267;41896;-41
2023/06/15 10:02:18;;;;;;;6.10;4.40;;;;;;;;;;108122;267;38770;-42
2023/06/15 10:04:53;;;;;;;5.70;4.30;;;;;;;;;;108110;274;39628;-43
2023/06/15 10:07:26;;;;;;;5.20;4.30;;;;;;;;;;108126;270;42605;-42
2023/06/15 10:10:00;;;;;;;5.40;4.40;;;;;;;;;;108075;267;42179;-42
2023/06/15 10:12:35;;;;;;;5.40;4.40;;;;;;;;;;108129;267;38538;-42
2023/06/15 10:15:16;;;;;;;5.50;4.70;;;;;;;;;;107943;274;175469;-42
2023/06/15 10:17:56;;;;;;;5.70;4.60;;;;;;;;;;108079;270;43184;-41
2023/06/15 10:20:30;;;;;;;5.30;4.30;;;;;;;;;;108146;274;43137;-44
2023/06/15 10:23:08;;;;;;;5.50;4.30;;;;;;;;;;108135;270;38820;-42
2023/06/15 10:25:46;;;;;;;5.30;4.40;;;;;;;;;;108036;273;39724;-46
2023/06/15 10:28:23;;;;;;;5.80;4.30;;;;;;;;;;108134;270;44011;-44
2023/06/15 10:31:06;;;;;;;5.10;4.30;;;;;;;;;;108116;274;42167;-43
2023/06/15 10:33:48;;;;;;;5.90;4.40;;;;;;;;;;108089;267;38831;-42
2023/06/15 10:36:29;;;;;;;6.50;5.00;;;;;;;;;;108076;267;46003;-42
2023/06/15 10:39:10;;;;;;;5.30;4.20;;;;;;;;;;108128;271;44270;-41
2023/06/15 10:41:47;;;;;;;5.20;4.10;;;;;;;;;;108023;267;175513;-42
2023/06/15 10:44:22;;;;;;;5.40;4.20;;;;;;;;;;108088;275;38725;-41
2023/06/15 10:47:09;;;;;;;4.80;4.10;;;;;;;;;;108108;275;40037;-40
2023/06/15 10:49:51;;;;;;;5.10;4.00;;;;;;;;;;108128;271;42843;-42
2023/06/15 10:52:36;;;;;;;5.30;4.20;;;;;;;;;;108065;271;41958;-44
2023/06/15 10:55:15;;;;;;;5.10;3.90;;;;;;;;;;108056;275;38968;-41
2023/06/15 10:57:50;;;;;;;4.80;4.00;;;;;;;;;;108119;275;39780;-42
2023/06/15 11:00:29;;;;;;;4.70;3.70;;;;;;;;;;108127;267;42824;-43
2023/06/15 11:03:02;;;;;;;5.10;4.00;;;;;;;;;;108145;275;43437;-40
2023/06/15 11:05:45;;;;;;;5.10;4.00;;;;;;;;;;108012;272;39059;-41
2023/06/15 11:08:22;;;;;;;5.00;3.90;;;;;;;;;;108126;275;39767;-38
2023/06/15 11:10:58;;;;;;;5.30;4.00;;;;;;;;;;108081;275;42827;-45
2023/06/15 11:13:32;;;;;;;5.60;4.50;;;;;;;;;;108049;267;42019;-41
2023/06/15 11:16:12;;;;;;;6.10;4.50;;;;;;;;;;108054;275;38744;-40
2023/06/15 11:19:26;;;;;;;5.80;4.60;;;;;;;;;;108018;267;39797;-42
2023/06/15 11:22:07;;;;;;;5.40;4.70;;;;;;;;;;108063;267;42934;-44
2023/06/15 11:24:41;;;;;;;5.50;4.40;;;;;;;;;;108015;271;42152;-44
2023/06/15 11:27:18;;;;;;;6.50;5.00;;;;;;;;;;107953;271;44785;-44
2023/06/15 11:29:58;;;;;;;5.90;4.90;;;;;;;;;;107998;267;39785;-49
2023/06/15 11:32:33;;;;;;;6.60;5.10;;;;;;;;;;108006;271;44002;-43
2023/06/15 11:35:08;;;;;;;6.50;4.60;;;;;;;;;;108061;271;42117;-45
2023/06/15 11:37:42;;;;;;;6.20;5.00;;;;;;;;;;108058;274;45137;-43
2023/06/15 11:40:20;;;;;;;6.30;5.60;;;;;;;;;;108137;274;40781;-44
2023/06/15 11:42:58;;;;;;;5.60;4.80;;;;;;;;;;108159;275;44072;-42
2023/06/15 11:45:34;;;;;;;6.90;5.40;;;;;;;;;;108138;274;42239;-42
2023/06/15 11:48:19;;;;;;;6.60;5.60;;;;;;;;;;108160;274;38595;-40
2023/06/15 11:50:56;;;;;;;5.50;4.70;;;;;;;;;;108080;267;39808;-44
2023/06/15 11:53:29;;;;;;;5.40;4.50;;;;;;;;;;108134;273;43064;-39
2023/06/15 11:56:07;;;;;;;6.80;4.80;;;;;;;;;;107996;267;175473;-41
2023/06/15 11:58:44;;;;;;;5.80;4.70;;;;;;;;;;108100;274;39948;-42
2023/06/15 12:01:20;;;;;;;6.50;5.50;;;;;;;;;;108115;274;39833;-41
2023/06/15 12:03:55;;;;;;;6.20;5.50;;;;;;;;;;108038;268;42915;-41
2023/06/15 12:06:38;;;;;;;5.80;5.10;;;;;;;;;;108050;274;42019;-40
2023/06/15 12:09:13;;;;;;;7.10;5.10;;;;;;;;;;108085;274;38786;-40
2023/06/15 12:11:49;;;;;;;6.10;5.40;;;;;;;;;;108197;274;39874;-39
2023/06/15 12:14:30;;;;;;;6.60;5.00;;;;;;;;;;108073;274;42790;-39
2023/06/15 12:17:03;;;;;;;5.70;4.50;;;;;;;;;;108063;274;43292;-39
2023/06/15 12:19:41;;;;;;;5.30;4.40;;;;;;;;;;108117;274;38899;-41
2023/06/15 12:22:15;;;;;;;6.10;4.50;;;;;;;;;;108102;271;39540;-41
2023/06/15 12:25:11;;;;;;;6.10;4.50;;;;;;;;;;108048;273;43797;-40
2023/06/15 12:27:47;;;;;;;6.20;4.60;;;;;;;;;;108119;270;42127;-38
2023/06/15 12:30:25;;;;;;;5.30;4.40;;;;;;;;;;108078;270;38746;-42
2023/06/15 12:33:01;;;;;;;6.20;5.10;;;;;;;;;;108087;274;39694;-41
2023/06/15 12:35:38;;;;;;;6.30;4.30;;;;;;;;;;108126;267;42776;-40
2023/06/15 12:38:12;;;;;;;5.60;4.60;;;;;;;;;;108037;274;42128;-38
2023/06/15 12:40:47;;;;;;;5.20;4.40;;;;;;;;;;108091;267;38864;-38
2023/06/15 12:43:26;;;;;;;5.20;4.30;;;;;;;;;;108160;274;40044;-44
2023/06/15 12:45:59;;;;;;;5.70;4.40;;;;;;;;;;108173;274;42933;-45
2023/06/15 12:48:33;;;;;;;5.20;4.20;;;;;;;;;;107638;274;552430;-41
2023/06/15 12:51:12;;;;;;;6.60;4.60;;;;;;;;;;108062;275;39189;-49
2023/06/15 12:53:45;;;;;;;6.10;4.50;;;;;;;;;;108057;271;39673;-40
2023/06/15 12:56:18;;;;;;;5.30;4.10;;;;;;;;;;108056;274;43728;-45
2023/06/15 12:58:53;;;;;;;5.10;4.20;;;;;;;;;;108101;274;43211;-42
2023/06/15 13:01:28;;;;;;;6.10;4.20;;;;;;;;;;108096;271;38847;-45
2023/06/15 13:04:01;;;;;;;5.40;4.00;;;;;;;;;;108105;270;39823;-54
2023/06/15 13:06:35;;;;;;;5.00;3.90;;;;;;;;;;107451;270;891966;-45
2023/06/15 13:09:08;;;;;;;5.40;3.30;;;;;;;;;;108110;270;42143;-44
2023/06/15 13:11:43;;;;;;;5.20;3.60;;;;;;;;;;108104;274;38852;-43
2023/06/15 13:14:20;;;;;;;4.60;3.20;;;;;;;;;;108103;267;39658;-39
2023/06/15 13:16:53;;;;;;;4.30;3.00;;;;;;;;;;108070;266;42784;-39
2023/06/15 13:19:29;;;;;;;4.40;2.90;;;;;;;;;;108020;275;42159;-41
2023/06/15 13:22:02;;;;;;;4.30;2.90;;;;;;;;;;108070;270;38950;-42
2023/06/15 13:24:36;;;;;;;4.50;3.00;;;;;;;;;;108011;266;39464;-40
2023/06/15 13:27:11;;;;;;;4.70;2.80;;;;;;;;;;108072;266;44100;-39
2023/06/15 13:29:44;;;;;;;4.70;2.70;;;;;;;;;;108180;267;48991;-42
2023/06/15 13:32:20;;;;;;;5.00;2.70;;;;;;;;;;108060;274;38844;-41
2023/06/15 13:34:54;;;;;;;4.00;2.60;;;;;;;;;;108044;275;41925;-44
2023/06/15 13:37:31;;;;;;;3.70;2.20;;;;;;;;;;107977;274;43259;-40
2023/06/15 13:40:13;;;;;;;4.20;2.50;;;;;;;;;;108025;270;49016;-48
2023/06/15 13:42:47;;;;;;;4.10;2.60;;;;;;;;;;108155;274;38523;-43
2023/06/15 13:45:22;;;;;;;4.50;2.40;;;;;;;;;;108172;274;39711;-44
2023/06/15 13:47:56;;;;;;;4.40;2.30;;;;;;;;;;108079;275;42878;-43
2023/06/15 13:50:29;;;;;;;4.50;2.60;;;;;;;;;;107995;274;42122;-39
2023/06/15 13:53:06;;;;;;;3.70;2.30;;;;;;;;;;108182;270;38842;-39
2023/06/15 13:55:42;;;;;;;4.00;2.40;;;;;;;;;;108145;267;39670;-41
2023/06/15 13:58:17;;;;;;;4.00;2.40;;;;;;;;;;108104;271;42892;-39
2023/06/15 14:00:50;;;;;;;4.40;2.60;;;;;;;;;;107934;267;175435;-39
2023/06/15 14:03:24;;;;;;;3.80;2.30;;;;;;;;;;108089;274;38804;-43
2023/06/15 14:05:57;;;;;;;3.90;2.50;;;;;;;;;;108135;274;39422;-43
2023/06/15 14:08:34;;;;;;;4.50;2.60;;;;;;;;;;108145;271;42781;-40
2023/06/15 14:11:07;;;;;;;4.00;2.60;;;;;;;;;;108086;270;48609;-41
2023/06/15 14:13:50;;;;;;;3.90;2.40;;;;;;;;;;108165;270;38578;-42
2023/06/15 14:16:27;;;;;;;3.60;2.40;;;;;;;;;;108172;267;39671;-42
2023/06/15 14:19:01;;;;;;;3.70;2.30;;;;;;;;;;108041;271;44072;-41
2023/06/15 14:21:35;;;;;;;3.60;2.20;;;;;;;;;;108121;270;42132;-41
2023/06/15 14:24:08;;;;;;;4.10;2.50;;;;;;;;;;107966;274;175616;-42
2023/06/15 14:26:42;;;;;;;4.10;2.40;;;;;;;;;;108089;271;39679;-44
2023/06/15 14:29:16;;;;;;;4.10;2.50;;;;;;;;;;107918;274;195778;-40
2023/06/15 14:31:50;;;;;;;4.10;2.90;;;;;;;;;;108141;267;41841;-43
2023/06/15 14:34:24;;;;;;;4.40;3.00;;;;;;;;;;107986;270;174914;-42
2023/06/15 14:36:57;;;;;;;4.30;2.80;;;;;;;;;;108114;267;39650;-40
2023/06/15 14:39:31;;;;;;;4.00;2.60;;;;;;;;;;108099;274;43962;-42
2023/06/15 14:42:06;;;;;;;3.90;2.50;;;;;;;;;;108107;274;43128;-40
2023/06/15 14:44:41;;;;;;;3.90;2.80;;;;;;;;;;108150;270;38752;-41
2023/06/15 14:47:15;;;;;;;5.30;3.00;;;;;;;;;;108142;271;39674;-44
2023/06/15 14:49:48;;;;;;;4.50;3.20;;;;;;;;;;108089;274;42916;-41
2023/06/15 14:52:22;;;;;;;4.80;3.00;;;;;;;;;;108148;271;42155;-43
2023/06/15 14:54:56;;;;;;;5.70;3.10;;;;;;;;;;108145;271;39855;-40
2023/06/15 14:57:31;;;;;;;4.80;3.10;;;;;;;;;;108084;274;39794;-41
2023/06/15 15:00:07;;;;;;;4.60;2.80;;;;;;;;;;108087;274;43950;-42
2023/06/15 15:02:41;;;;;;;4.30;2.80;;;;;;;;;;108173;274;42410;-41
2023/06/15 15:05:15;;;;;;;4.70;2.90;;;;;;;;;;108135;270;39876;-44
2023/06/15 15:07:50;;;;;;;5.30;2.90;;;;;;;;;;108189;270;39677;-39
2023/06/15 15:10:23;;;;;;;4.10;2.90;;;;;;;;;;108074;274;42806;-39
2023/06/15 15:12:57;;;;;;;4.60;3.10;;;;;;;;;;108025;274;43121;-41
2023/06/15 15:15:30;;;;;;;4.80;3.10;;;;;;;;;;108189;272;38545;-40
2023/06/15 15:18:04;;;;;;;4.70;3.00;;;;;;;;;;108145;274;39754;-42
2023/06/15 15:20:37;;;;;;;4.40;3.10;;;;;;;;;;107987;272;175461;-40
2023/06/15 15:23:10;;;;;;;4.60;3.10;;;;;;;;;;108099;274;42173;-42
2023/06/15 15:25:44;;;;;;;6.10;3.60;;;;;;;;;;108103;274;39803;-41
2023/06/15 15:28:17;;;;;;;4.70;3.40;;;;;;;;;;108090;272;39699;-42
2023/06/15 15:30:53;;;;;;;4.30;2.90;;;;;;;;;;108068;271;43982;-42